createdAt,value
2018-02-12T00:01:55.635Z,83.50
2018-02-12T00:04:23.880Z,53.13
2018-02-12T00:06:52.160Z,44.73
2018-02-12T00:09:20.507Z,44.00
2018-02-12T00:11:48.765Z,60.27
2018-02-12T00:14:17.104Z,40.87
2018-02-12T00:16:45.416Z,42.50
2018-02-12T00:19:13.723Z,72.93
2018-02-12T00:21:42.037Z,80.00
2018-02-12T00:24:10.326Z,85.67
2018-02-12T00:26:39.448Z,70.63
2018-02-12T00:29:07.692Z,64.93
2018-02-12T00:31:36.770Z,59.30
2018-02-12T00:34:05.012Z,69.03
2018-02-12T00:36:33.317Z,74.23
2018-02-12T00:39:01.606Z,57.70
2018-02-12T00:41:29.888Z,60.73
2018-02-12T00:43:58.138Z,57.00
2018-02-12T00:46:26.442Z,50.23
2018-02-12T00:48:54.715Z,64.43
2018-02-12T00:51:23.810Z,42.63
2018-02-12T00:53:52.175Z,38.83
2018-02-12T00:56:20.508Z,45.60
2018-02-12T00:58:48.978Z,44.43
2018-02-12T01:01:17.316Z,48.77
2018-02-12T01:03:45.643Z,56.43
2018-02-12T01:06:13.904Z,35.60
2018-02-12T01:08:42.215Z,37.63
2018-02-12T01:11:11.315Z,43.83
2018-02-12T01:13:39.584Z,62.50
2018-02-12T01:16:07.890Z,36.40
2018-02-12T01:18:36.264Z,36.73
2018-02-12T01:21:04.649Z,39.83
2018-02-12T01:23:33.026Z,41.57
2018-02-12T01:26:02.119Z,37.93
2018-02-12T01:28:30.479Z,52.63
2018-02-12T01:30:58.797Z,42.07
2018-02-12T01:33:27.140Z,37.43
2018-02-12T01:35:55.398Z,43.20
2018-02-12T01:38:23.714Z,46.80
2018-02-12T01:40:52.822Z,40.83
2018-02-12T01:43:21.248Z,60.50
2018-02-12T01:45:49.604Z,34.47
2018-02-12T01:48:17.888Z,37.20
2018-02-12T01:50:46.193Z,47.40
2018-02-12T01:53:14.562Z,38.10
2018-02-12T01:55:42.845Z,35.10
2018-02-12T01:58:11.118Z,42.70
2018-02-12T02:00:39.622Z,37.10
2018-02-12T02:03:08.667Z,37.57
2018-02-12T02:05:36.903Z,36.47
2018-02-12T02:08:05.994Z,31.77
2018-02-12T02:10:34.258Z,38.70
2018-02-12T02:13:02.542Z,40.73
2018-02-12T02:15:30.834Z,45.53
2018-02-12T02:17:59.180Z,33.73
2018-02-12T02:20:27.412Z,37.97
2018-02-12T02:22:55.713Z,54.97
2018-02-12T02:25:24.016Z,42.90
2018-02-12T02:27:52.268Z,56.40
2018-02-12T02:30:20.572Z,62.60
2018-02-12T02:32:48.859Z,54.60
2018-02-12T02:35:17.116Z,65.00
2018-02-12T02:37:45.448Z,55.27
2018-02-12T02:40:13.751Z,46.30
2018-02-12T02:42:42.026Z,60.90
2018-02-12T02:45:11.144Z,41.30
2018-02-12T02:47:39.418Z,43.57
2018-02-12T02:50:07.651Z,43.00
2018-02-12T02:52:35.941Z,43.50
2018-02-12T02:55:04.225Z,41.30
2018-02-12T02:57:32.481Z,35.90
2018-02-12T03:00:00.819Z,36.70
2018-02-12T03:02:29.354Z,37.07
2018-02-12T03:04:57.684Z,33.10
2018-02-12T03:07:26.017Z,38.37
2018-02-12T03:09:54.326Z,28.20
2018-02-12T03:12:22.689Z,34.10
2018-02-12T03:14:51.059Z,28.03
2018-02-12T03:17:19.374Z,28.40
2018-02-12T03:19:47.623Z,32.27
2018-02-12T03:22:17.611Z,28.33
2018-02-12T03:24:45.878Z,24.47
2018-02-12T03:27:14.171Z,27.30
2018-02-12T03:29:43.421Z,24.83
2018-02-12T03:32:11.686Z,22.83
2018-02-12T03:34:39.982Z,27.00
2018-02-12T03:37:09.143Z,22.50
2018-02-12T03:39:37.414Z,24.73
2018-02-12T03:42:05.714Z,21.23
2018-02-12T03:44:34.021Z,22.73
2018-02-12T03:47:02.303Z,21.97
2018-02-12T03:49:30.584Z,26.63
2018-02-12T03:51:58.898Z,28.27
2018-02-12T03:54:27.934Z,23.97
2018-02-12T03:56:56.258Z,24.23
2018-02-12T03:59:24.551Z,26.23
2018-02-12T04:01:52.844Z,22.57
2018-02-12T04:04:21.403Z,23.80
2018-02-12T04:06:49.679Z,23.07
2018-02-12T04:09:18.746Z,21.37
2018-02-12T04:11:47.756Z,25.70
2018-02-12T04:14:16.045Z,21.17
2018-02-12T04:16:44.346Z,24.07
2018-02-12T04:19:12.672Z,31.00
2018-02-12T04:21:40.948Z,23.00
2018-02-12T04:24:09.212Z,19.87
2018-02-12T04:26:37.490Z,27.00
2018-02-12T04:29:05.946Z,19.37
2018-02-12T04:31:34.228Z,25.43
2018-02-12T04:34:02.518Z,25.07
2018-02-12T04:36:30.859Z,24.10
2018-02-12T04:38:59.115Z,25.80
2018-02-12T04:41:28.148Z,27.73
2018-02-12T04:43:56.454Z,34.00
2018-02-12T04:46:27.106Z,36.67
2018-02-12T04:48:55.371Z,21.13
2018-02-12T04:51:23.682Z,32.03
2018-02-12T04:53:51.973Z,23.67
2018-02-12T04:56:20.216Z,19.17
2018-02-12T04:58:49.340Z,23.47
2018-02-12T05:01:17.637Z,22.07
2018-02-12T05:03:45.924Z,30.10
2018-02-12T05:06:14.255Z,24.83
2018-02-12T05:08:43.327Z,28.87
2018-02-12T05:11:11.626Z,30.03
2018-02-12T05:13:40.683Z,31.17
2018-02-12T05:16:09.030Z,30.83
2018-02-12T05:18:37.375Z,34.93
2018-02-12T05:21:05.781Z,31.63
2018-02-12T05:23:34.051Z,30.60
2018-02-12T05:26:02.352Z,41.50
2018-02-12T05:28:30.682Z,44.90
2018-02-12T05:30:59.693Z,42.03
2018-02-12T05:33:27.999Z,45.30
2018-02-12T05:35:56.353Z,31.40
2018-02-12T05:38:24.605Z,37.63
2018-02-12T05:40:53.751Z,47.83
2018-02-12T05:43:22.056Z,35.50
2018-02-12T05:45:50.273Z,46.03
2018-02-12T05:48:18.588Z,37.60
2018-02-12T05:50:46.939Z,38.50
2018-02-12T05:53:15.208Z,44.07
2018-02-12T05:55:43.506Z,43.93
2018-02-12T05:58:11.829Z,36.97
2018-02-12T06:00:40.850Z,48.70
2018-02-12T06:03:09.151Z,42.47
2018-02-12T06:05:37.433Z,31.20
2018-02-12T06:08:05.685Z,16.27
2018-02-12T06:10:33.966Z,21.03
2018-02-12T06:13:02.262Z,15.40
2018-02-12T06:15:30.523Z,17.20
2018-02-12T06:17:58.774Z,21.33
2018-02-12T06:20:27.073Z,25.10
2018-02-12T06:22:56.130Z,20.60
2018-02-12T06:25:25.143Z,17.00
2018-02-12T06:27:53.449Z,17.57
2018-02-12T06:30:21.774Z,32.17
2018-02-12T06:32:50.789Z,16.30
2018-02-12T06:35:19.171Z,20.60
2018-02-12T06:37:47.413Z,33.57
2018-02-12T06:40:16.413Z,15.80
2018-02-12T06:42:44.843Z,32.53
2018-02-12T06:45:13.099Z,35.07
2018-02-12T06:47:41.368Z,33.80
2018-02-12T06:50:09.639Z,38.10
2018-02-12T06:52:38.662Z,37.20
2018-02-12T06:55:06.898Z,43.20
2018-02-12T06:57:35.306Z,38.43
2018-02-12T07:00:03.532Z,47.23
2018-02-12T07:02:32.574Z,30.87
2018-02-12T07:05:00.858Z,28.97
2018-02-12T07:07:29.120Z,28.63
2018-02-12T07:09:57.387Z,18.47
2018-02-12T07:12:25.808Z,15.97
2018-02-12T07:14:54.042Z,19.33
2018-02-12T07:17:22.289Z,26.47
2018-02-12T07:19:50.588Z,17.63
2018-02-12T07:22:18.880Z,18.47
2018-02-12T07:24:47.160Z,16.13
2018-02-12T07:27:15.548Z,17.17
2018-02-12T07:29:43.873Z,22.80
2018-02-12T07:32:12.149Z,18.63
2018-02-12T07:34:40.565Z,36.13
2018-02-12T07:37:08.871Z,23.23
2018-02-12T07:39:37.101Z,35.67
2018-02-12T07:42:05.449Z,17.00
2018-02-12T07:44:33.714Z,29.77
2018-02-12T07:47:01.978Z,33.77
2018-02-12T07:49:30.362Z,27.93
2018-02-12T07:51:58.747Z,24.93
2018-02-12T07:54:27.090Z,20.13
2018-02-12T07:56:55.446Z,17.23
2018-02-12T07:59:23.718Z,16.43
2018-02-12T08:01:52.032Z,39.23
2018-02-12T08:04:20.899Z,23.10
2018-02-12T08:06:49.229Z,26.40
2018-02-12T08:09:18.280Z,28.03
2018-02-12T08:11:46.649Z,16.03
2018-02-12T08:14:15.141Z,17.60
2018-02-12T08:16:43.527Z,27.63
2018-02-12T08:19:11.920Z,24.57
2018-02-12T08:21:40.293Z,20.00
2018-02-12T08:24:08.554Z,20.80
2018-02-12T08:26:36.878Z,26.13
2018-02-12T08:29:06.253Z,21.20
2018-02-12T08:31:34.689Z,17.00
2018-02-12T08:34:03.116Z,18.90
2018-02-12T08:36:32.297Z,24.33
2018-02-12T08:39:01.485Z,25.10
2018-02-12T08:41:29.834Z,19.30
2018-02-12T08:43:58.128Z,22.30
2018-02-12T08:46:26.597Z,25.67
2018-02-12T08:48:54.894Z,18.77
2018-02-12T08:51:23.274Z,29.07
2018-02-12T08:53:51.597Z,38.53
2018-02-12T08:56:19.866Z,29.90
2018-02-12T08:58:48.979Z,24.83
2018-02-12T09:01:17.323Z,22.13
2018-02-12T09:03:45.624Z,18.43
2018-02-12T09:06:14.842Z,18.40
2018-02-12T09:08:43.197Z,17.43
2018-02-12T09:11:12.363Z,18.67
2018-02-12T09:13:41.012Z,15.07
2018-02-12T09:16:09.299Z,18.77
2018-02-12T09:18:37.585Z,19.50
2018-02-12T09:21:05.949Z,15.77
2018-02-12T09:23:34.258Z,19.13
2018-02-12T09:26:03.439Z,20.23
2018-02-12T09:28:32.669Z,19.37
2018-02-12T09:31:01.757Z,13.50
2018-02-12T09:33:30.846Z,14.50
2018-02-12T09:35:59.181Z,13.23
2018-02-12T09:38:27.413Z,15.07
2018-02-12T09:40:56.611Z,17.93
2018-02-12T09:43:25.722Z,13.13
2018-02-12T09:45:54.047Z,15.03
2018-02-12T09:48:22.732Z,16.00
2018-02-12T09:50:51.053Z,9.37
2018-02-12T09:53:20.243Z,16.50
2018-02-12T09:55:49.428Z,12.80
2018-02-12T09:58:17.789Z,13.37
2018-02-12T10:00:46.080Z,11.23
2018-02-12T10:03:14.438Z,16.97
2018-02-12T10:05:42.714Z,13.73
2018-02-12T10:08:11.884Z,10.13
2018-02-12T10:10:40.178Z,7.70
2018-02-12T10:13:08.663Z,12.77
2018-02-12T10:15:36.987Z,10.47
2018-02-12T10:18:05.330Z,10.43
2018-02-12T10:20:33.646Z,15.63
2018-02-12T10:23:04.010Z,10.50
2018-02-12T10:25:30.282Z,15.57
2018-02-12T10:27:59.711Z,12.27
2018-02-12T10:30:27.958Z,12.50
2018-02-12T10:32:57.049Z,10.93
2018-02-12T10:35:25.392Z,16.53
2018-02-12T10:37:53.810Z,14.50
2018-02-12T10:40:22.883Z,11.47
2018-02-12T10:42:51.213Z,14.47
2018-02-12T10:45:19.454Z,16.03
2018-02-12T10:47:47.738Z,13.83
2018-02-12T10:50:16.800Z,10.77
2018-02-12T10:52:45.128Z,12.27
2018-02-12T10:55:13.522Z,15.07
2018-02-12T10:57:41.854Z,9.00
2018-02-12T11:00:10.119Z,17.47
2018-02-12T11:02:38.427Z,11.50
2018-02-12T11:05:06.687Z,10.77
2018-02-12T11:07:35.206Z,12.77
2018-02-12T11:10:03.526Z,64.03
2018-02-12T11:12:32.650Z,16.47
2018-02-12T11:15:00.924Z,19.37
2018-02-12T11:17:30.340Z,17.43
2018-02-12T11:19:59.515Z,13.83
2018-02-12T11:22:27.794Z,13.43
2018-02-12T11:24:56.885Z,16.20
2018-02-12T11:27:25.138Z,13.13
2018-02-12T11:29:54.187Z,12.67
2018-02-12T11:32:22.543Z,11.97
2018-02-12T11:34:51.201Z,12.33
2018-02-12T11:37:19.425Z,13.93
2018-02-12T11:39:47.778Z,11.60
2018-02-12T11:42:16.501Z,10.33
2018-02-12T11:44:44.732Z,14.17
2018-02-12T11:47:13.939Z,13.50
2018-02-12T11:49:42.245Z,12.07
2018-02-12T11:52:10.714Z,8.57
2018-02-12T11:54:39.061Z,14.80
2018-02-12T11:57:07.274Z,9.97
2018-02-12T11:59:35.545Z,13.17
2018-02-12T12:02:04.649Z,12.33
2018-02-12T12:04:32.888Z,14.23
2018-02-12T12:07:01.203Z,12.90
2018-02-12T12:09:29.520Z,10.23
2018-02-12T12:11:57.946Z,12.80
2018-02-12T12:14:26.195Z,11.83
2018-02-12T12:16:55.330Z,9.50
2018-02-12T12:19:23.708Z,10.90
2018-02-12T12:21:52.113Z,17.97
2018-02-12T12:24:20.485Z,12.33
2018-02-12T12:26:48.774Z,12.00
2018-02-12T12:29:17.058Z,11.33
2018-02-12T12:31:45.475Z,11.17
2018-02-12T12:34:13.851Z,14.17
2018-02-12T12:36:43.090Z,11.30
2018-02-12T12:39:11.468Z,9.57
2018-02-12T12:41:40.057Z,15.33
2018-02-12T12:44:08.323Z,9.37
2018-02-12T12:46:36.587Z,11.37
2018-02-12T12:49:05.146Z,16.93
2018-02-12T12:51:34.356Z,9.80
2018-02-12T12:54:02.688Z,9.80
2018-02-12T12:56:30.988Z,13.53
2018-02-12T12:58:59.242Z,12.67
2018-02-12T13:01:28.433Z,9.80
2018-02-12T13:03:56.734Z,12.90
2018-02-12T13:06:25.792Z,9.93
2018-02-12T13:08:54.419Z,8.70
2018-02-12T13:11:23.413Z,10.40
2018-02-12T13:13:52.500Z,8.37
2018-02-12T13:16:21.573Z,8.33
2018-02-12T13:18:49.871Z,10.20
2018-02-12T13:21:18.974Z,9.53
2018-02-12T13:23:47.322Z,10.40
2018-02-12T13:26:15.569Z,12.07
2018-02-12T13:28:43.829Z,8.27
2018-02-12T13:31:12.237Z,14.50
2018-02-12T13:33:40.487Z,9.80
2018-02-12T13:36:08.765Z,11.67
2018-02-12T13:38:37.071Z,11.90
2018-02-12T13:41:05.339Z,13.33
2018-02-12T13:43:33.571Z,13.43
2018-02-12T13:46:01.907Z,12.30
2018-02-12T13:48:30.189Z,9.17
2018-02-12T13:50:58.430Z,18.87
2018-02-12T13:53:26.853Z,20.10
2018-02-12T13:55:55.890Z,17.93
2018-02-12T13:58:24.182Z,19.07
2018-02-12T14:00:52.463Z,19.20
2018-02-12T14:03:20.703Z,16.70
2018-02-12T14:05:48.965Z,13.50
2018-02-12T14:08:17.314Z,17.17
2018-02-12T14:10:45.593Z,26.40
2018-02-12T14:13:14.643Z,24.43
2018-02-12T14:15:42.930Z,20.50
2018-02-12T14:18:11.213Z,19.77
2018-02-12T14:20:39.514Z,14.90
2018-02-12T14:23:07.920Z,24.00
2018-02-12T14:25:36.194Z,21.53
2018-02-12T14:28:05.201Z,14.27
2018-02-12T14:30:33.533Z,17.43
2018-02-12T14:33:01.782Z,25.33
2018-02-12T14:35:30.020Z,21.60
2018-02-12T14:37:58.357Z,18.97
2018-02-12T14:40:26.596Z,18.47
2018-02-12T14:42:54.836Z,16.60
2018-02-12T14:45:23.162Z,15.17
2018-02-12T14:47:51.398Z,15.60
2018-02-12T14:50:19.659Z,11.77
2018-02-12T14:52:47.980Z,11.77
2018-02-12T14:55:16.215Z,12.70
2018-02-12T14:57:45.270Z,18.03
2018-02-12T15:00:13.581Z,16.60
2018-02-12T15:02:41.854Z,13.43
2018-02-12T15:05:10.856Z,15.13
2018-02-12T15:07:39.917Z,10.40
2018-02-12T15:10:08.144Z,14.20
2018-02-12T15:12:36.420Z,16.97
2018-02-12T15:15:04.713Z,12.70
2018-02-12T15:17:32.945Z,16.90
2018-02-12T15:20:01.192Z,15.20
2018-02-12T15:22:29.480Z,12.17
2018-02-12T15:24:57.720Z,12.90
2018-02-12T15:27:25.964Z,12.50
2018-02-12T15:29:54.278Z,16.20
2018-02-12T15:32:22.549Z,21.13
2018-02-12T15:34:51.648Z,14.47
2018-02-12T15:37:19.915Z,13.60
2018-02-12T15:39:48.143Z,27.13
2018-02-12T15:42:17.154Z,22.03
2018-02-12T15:44:45.453Z,13.53
2018-02-12T15:47:13.696Z,17.53
2018-02-12T15:49:41.940Z,14.47
2018-02-12T15:52:10.216Z,21.20
2018-02-12T15:54:38.469Z,24.07
2018-02-12T15:57:06.690Z,29.43
2018-02-12T15:59:35.761Z,31.60
2018-02-12T16:02:03.980Z,25.03
2018-02-12T16:04:32.208Z,23.30
2018-02-12T16:07:00.631Z,27.03
2018-02-12T16:09:28.881Z,34.67
2018-02-12T16:11:57.924Z,58.73
2018-02-12T16:14:26.233Z,45.27
2018-02-12T16:16:54.460Z,57.93
2018-02-12T16:19:22.985Z,45.30
2018-02-12T16:21:51.279Z,31.77
2018-02-12T16:24:19.570Z,21.37
2018-02-12T16:26:47.873Z,28.87
2018-02-12T16:29:16.223Z,15.57
2018-02-12T16:31:44.495Z,12.27
2018-02-12T16:34:13.572Z,26.70
2018-02-12T16:36:42.617Z,18.10
2018-02-12T16:39:10.979Z,36.60
2018-02-12T16:41:39.312Z,28.93
2018-02-12T16:44:07.678Z,20.83
2018-02-12T16:46:36.004Z,18.43
2018-02-12T16:49:05.048Z,15.03
2018-02-12T16:51:34.649Z,16.93
2018-02-12T16:54:09.812Z,14.47
2018-02-12T16:56:39.543Z,20.10
2018-02-12T16:59:08.473Z,18.63
2018-02-12T17:01:37.929Z,16.90
2018-02-12T17:04:06.903Z,19.20
2018-02-12T17:06:35.480Z,18.87
2018-02-12T17:09:05.472Z,16.43
2018-02-12T17:11:35.896Z,43.10
2018-02-12T17:14:06.530Z,28.90
2018-02-12T17:16:37.894Z,31.53
2018-02-12T17:19:08.733Z,15.77
2018-02-12T17:21:39.643Z,26.00
2018-02-12T17:24:08.553Z,16.83
2018-02-12T17:26:38.750Z,25.40
2018-02-12T17:29:08.705Z,15.50
2018-02-12T17:31:40.633Z,18.97
2018-02-12T17:34:09.439Z,16.97
2018-02-12T17:36:37.675Z,18.93
2018-02-12T17:39:06.714Z,29.90
2018-02-12T17:41:35.087Z,86.70
2018-02-12T17:44:03.385Z,22.23
2018-02-12T17:46:31.679Z,128.20
2018-02-12T17:49:00.149Z,22.97
2018-02-12T17:51:29.187Z,43.43
2018-02-12T17:53:57.424Z,62.37
2018-02-12T17:56:26.492Z,113.00
2018-02-12T17:58:54.925Z,34.93
2018-02-12T18:01:23.284Z,115.53
2018-02-12T18:03:52.304Z,111.77
2018-02-12T18:06:20.608Z,113.63
2018-02-12T18:08:49.501Z,69.60
2018-02-12T18:11:17.842Z,54.63
2018-02-12T18:13:46.201Z,56.77
2018-02-12T18:16:15.254Z,34.50
2018-02-12T18:18:43.544Z,69.03
2018-02-12T18:21:11.823Z,94.27
2018-02-12T18:23:40.160Z,81.00
2018-02-12T18:26:09.246Z,76.03
2018-02-12T18:28:37.544Z,47.53
2018-02-12T18:31:05.781Z,67.50
2018-02-12T18:33:34.649Z,71.27
2018-02-12T18:36:03.709Z,78.33
2018-02-12T18:38:31.990Z,90.30
2018-02-12T18:41:00.226Z,82.40
2018-02-12T18:43:28.478Z,62.80
2018-02-12T18:45:58.322Z,88.87
2018-02-12T18:48:26.557Z,46.17
2018-02-12T18:50:55.558Z,37.37
2018-02-12T18:53:24.578Z,50.90
2018-02-12T18:55:52.948Z,49.37
2018-02-12T18:58:21.201Z,53.93
2018-02-12T19:00:49.499Z,91.57
2018-02-12T19:03:17.781Z,74.17
2018-02-12T19:05:46.015Z,52.27
2018-02-12T19:08:14.247Z,109.40
2018-02-12T19:10:43.330Z,114.13
2018-02-12T19:13:11.637Z,124.40
2018-02-12T19:15:39.964Z,120.20
2018-02-12T19:18:08.311Z,87.00
2018-02-12T19:20:36.968Z,81.13
2018-02-12T19:23:05.216Z,49.43
2018-02-12T19:25:33.730Z,99.17
2018-02-12T19:28:01.982Z,57.53
2018-02-12T19:30:30.232Z,73.40
2018-02-12T19:32:58.562Z,68.20
2018-02-12T19:35:26.867Z,83.80
2018-02-12T19:37:55.159Z,195.73
2018-02-12T19:40:24.171Z,187.63
2018-02-12T19:42:52.558Z,179.00
2018-02-12T19:45:20.817Z,178.37
2018-02-12T19:47:49.152Z,118.93
2018-02-12T19:50:17.453Z,152.23
2018-02-12T19:52:46.464Z,96.40
2018-02-12T19:55:14.907Z,83.63
2018-02-12T19:57:43.207Z,145.93
2018-02-12T20:00:12.244Z,124.00
2018-02-12T20:02:40.573Z,102.07
2018-02-12T20:05:08.848Z,82.50
2018-02-12T20:07:37.126Z,118.47
2018-02-12T20:10:05.477Z,115.30
2018-02-12T20:12:35.084Z,66.23
2018-02-12T20:15:03.338Z,113.20
2018-02-12T20:17:31.671Z,112.37
2018-02-12T20:19:59.909Z,133.67
2018-02-12T20:22:28.138Z,132.17
2018-02-12T20:24:57.953Z,82.40
2018-02-12T20:27:26.202Z,147.70
2018-02-12T20:29:54.517Z,87.80
2018-02-12T20:32:23.503Z,180.27
2018-02-12T20:34:51.806Z,175.23
2018-02-12T20:37:20.353Z,221.07
2018-02-12T20:39:48.675Z,181.03
2018-02-12T20:42:16.926Z,215.77
2018-02-12T20:44:45.196Z,142.70
2018-02-12T20:47:13.517Z,183.00
2018-02-12T20:49:42.550Z,150.20
2018-02-12T20:52:10.797Z,157.23
2018-02-12T20:54:39.109Z,176.87
2018-02-12T20:57:07.374Z,192.07
2018-02-12T20:59:35.630Z,166.37
2018-02-12T21:02:04.697Z,173.77
2018-02-12T21:04:32.958Z,190.80
2018-02-12T21:07:01.214Z,103.30
2018-02-12T21:09:29.531Z,93.20
2018-02-12T21:11:57.817Z,111.43
2018-02-12T21:14:26.803Z,166.97
2018-02-12T21:16:55.879Z,162.47
2018-02-12T21:19:24.103Z,128.13
2018-02-12T21:21:52.376Z,125.47
2018-02-12T21:24:20.704Z,115.03
2018-02-12T21:26:48.940Z,151.50
2018-02-12T21:29:17.189Z,155.73
2018-02-12T21:31:46.293Z,206.97
2018-02-12T21:34:14.535Z,149.83
2018-02-12T21:36:44.324Z,111.43
2018-02-12T21:39:12.704Z,97.90
2018-02-12T21:41:40.944Z,127.60
2018-02-12T21:44:09.229Z,123.20
2018-02-12T21:46:37.547Z,127.90
2018-02-12T21:49:05.807Z,105.70
2018-02-12T21:51:34.070Z,98.03
2018-02-12T21:54:02.353Z,108.30
2018-02-12T21:56:30.614Z,92.13
2018-02-12T21:58:58.868Z,73.63
2018-02-12T22:01:27.169Z,66.53
2018-02-12T22:03:55.478Z,75.00
2018-02-12T22:06:24.498Z,54.03
2018-02-12T22:08:52.857Z,57.67
2018-02-12T22:11:21.875Z,131.00
2018-02-12T22:13:50.885Z,104.23
2018-02-12T22:16:19.243Z,88.17
2018-02-12T22:18:47.561Z,99.90
2018-02-12T22:21:15.805Z,94.67
2018-02-12T22:23:44.856Z,79.23
2018-02-12T22:26:13.096Z,61.83
2018-02-12T22:28:41.350Z,77.37
2018-02-12T22:31:09.662Z,71.40
2018-02-12T22:33:37.915Z,65.80
2018-02-12T22:36:06.173Z,72.83
2018-02-12T22:38:34.450Z,61.27
2018-02-12T22:41:02.941Z,63.30
2018-02-12T22:43:31.228Z,66.93
2018-02-12T22:45:59.498Z,69.37
2018-02-12T22:48:27.725Z,69.37
2018-02-12T22:50:55.966Z,60.60
2018-02-12T22:53:24.258Z,63.77
2018-02-12T22:55:52.500Z,49.70
2018-02-12T22:58:21.785Z,60.70
2018-02-12T23:00:50.069Z,61.43
2018-02-12T23:03:18.343Z,55.37
2018-02-12T23:05:46.780Z,54.20
2018-02-12T23:08:15.043Z,48.73
2018-02-12T23:10:44.322Z,70.60
2018-02-12T23:13:12.554Z,60.97
2018-02-12T23:15:40.827Z,64.60
2018-02-12T23:18:10.097Z,60.67
2018-02-12T23:20:38.408Z,56.83
2018-02-12T23:23:06.734Z,51.80
2018-02-12T23:25:35.005Z,58.97
2018-02-12T23:28:03.295Z,65.00
2018-02-12T23:30:31.576Z,61.90
2018-02-12T23:32:59.817Z,60.50
2018-02-12T23:35:28.062Z,51.43
2018-02-12T23:37:57.105Z,55.03
2018-02-12T23:40:25.464Z,50.20
2018-02-12T23:42:53.817Z,54.20
2018-02-12T23:45:22.120Z,52.93
2018-02-12T23:47:50.359Z,57.60
2018-02-12T23:50:19.455Z,53.07
2018-02-12T23:52:47.755Z,46.27
2018-02-12T23:55:16.216Z,54.27
2018-02-12T23:57:45.197Z,54.53
